sensor_id;sensor_type;location;lat;lon;timestamp;temperature;humidity
52295;DHT22;38243;53.212;6.574;2022-08-25T00:02:06;24.00;99.90
52295;DHT22;38243;53.212;6.574;2022-08-25T00:04:33;23.90;99.90
52295;DHT22;38243;53.212;6.574;2022-08-25T00:07:00;23.90;99.90
52295;DHT22;38243;53.212;6.574;2022-08-25T00:09:26;23.90;99.90
52295;DHT22;38243;53.212;6.574;2022-08-25T00:11:52;23.80;99.90
52295;DHT22;38243;53.212;6.574;2022-08-25T00:14:22;23.80;99.90
52295;DHT22;38243;53.212;6.574;2022-08-25T00:16:48;23.80;99.90
52295;DHT22;38243;53.212;6.574;2022-08-25T00:19:15;23.80;99.90
52295;DHT22;38243;53.212;6.574;2022-08-25T00:21:41;23.80;99.90
52295;DHT22;38243;53.212;6.574;2022-08-25T00:24:08;23.80;99.90
52295;DHT22;38243;53.212;6.574;2022-08-25T00:26:36;23.80;99.90
52295;DHT22;38243;53.212;6.574;2022-08-25T00:29:02;23.80;99.90
52295;DHT22;38243;53.212;6.574;2022-08-25T00:31:27;23.70;99.90
52295;DHT22;38243;53.212;6.574;2022-08-25T00:33:53;23.80;99.50
52295;DHT22;38243;53.212;6.574;2022-08-25T00:36:19;23.70;99.50
52295;DHT22;38243;53.212;6.574;2022-08-25T00:38:45;23.70;99.40
52295;DHT22;38243;53.212;6.574;2022-08-25T00:41:13;23.70;98.70
52295;DHT22;38243;53.212;6.574;2022-08-25T00:46:05;23.70;98.50
52295;DHT22;38243;53.212;6.574;2022-08-25T00:48:31;23.70;98.20
52295;DHT22;38243;53.212;6.574;2022-08-25T00:50:57;23.60;98.10
52295;DHT22;38243;53.212;6.574;2022-08-25T00:53:23;23.70;97.80
52295;DHT22;38243;53.212;6.574;2022-08-25T00:55:49;23.60;97.70
52295;DHT22;38243;53.212;6.574;2022-08-25T00:58:17;23.60;97.30
52295;DHT22;38243;53.212;6.574;2022-08-25T01:00:46;23.60;97.40
52295;DHT22;38243;53.212;6.574;2022-08-25T01:03:11;23.60;96.90
52295;DHT22;38243;53.212;6.574;2022-08-25T01:05:37;23.50;96.80
52295;DHT22;38243;53.212;6.574;2022-08-25T01:08:04;23.50;97.00
52295;DHT22;38243;53.212;6.574;2022-08-25T01:10:31;23.50;96.80
52295;DHT22;38243;53.212;6.574;2022-08-25T01:13:20;23.50;96.60
52295;DHT22;38243;53.212;6.574;2022-08-25T01:15:44;23.50;96.30
52295;DHT22;38243;53.212;6.574;2022-08-25T01:18:10;23.50;96.50
52295;DHT22;38243;53.212;6.574;2022-08-25T01:20:36;23.50;96.30
52295;DHT22;38243;53.212;6.574;2022-08-25T01:23:02;23.50;96.10
52295;DHT22;38243;53.212;6.574;2022-08-25T01:25:41;23.40;96.10
52295;DHT22;38243;53.212;6.574;2022-08-25T01:28:09;23.40;95.90
52295;DHT22;38243;53.212;6.574;2022-08-25T01:30:35;23.40;96.10
52295;DHT22;38243;53.212;6.574;2022-08-25T01:33:05;23.40;95.90
52295;DHT22;38243;53.212;6.574;2022-08-25T01:35:31;23.40;95.80
52295;DHT22;38243;53.212;6.574;2022-08-25T01:37:58;23.40;95.80
52295;DHT22;38243;53.212;6.574;2022-08-25T01:40:24;23.40;95.50
52295;DHT22;38243;53.212;6.574;2022-08-25T01:45:27;23.30;95.40
52295;DHT22;38243;53.212;6.574;2022-08-25T01:47:53;23.30;95.30
52295;DHT22;38243;53.212;6.574;2022-08-25T01:50:19;23.30;95.10
52295;DHT22;38243;53.212;6.574;2022-08-25T01:55:10;23.20;94.80
52295;DHT22;38243;53.212;6.574;2022-08-25T01:57:35;23.20;94.80
52295;DHT22;38243;53.212;6.574;2022-08-25T02:00:01;23.20;94.60
52295;DHT22;38243;53.212;6.574;2022-08-25T02:02:28;23.20;94.60
52295;DHT22;38243;53.212;6.574;2022-08-25T02:04:54;23.20;94.70
52295;DHT22;38243;53.212;6.574;2022-08-25T02:07:20;23.20;94.70
52295;DHT22;38243;53.212;6.574;2022-08-25T02:09:46;23.10;94.50
52295;DHT22;38243;53.212;6.574;2022-08-25T02:12:11;23.10;94.50
52295;DHT22;38243;53.212;6.574;2022-08-25T02:14:37;23.10;94.80
52295;DHT22;38243;53.212;6.574;2022-08-25T02:17:03;23.10;94.50
52295;DHT22;38243;53.212;6.574;2022-08-25T02:19:29;23.10;94.30
52295;DHT22;38243;53.212;6.574;2022-08-25T02:21:56;23.10;94.30
52295;DHT22;38243;53.212;6.574;2022-08-25T02:24:22;23.00;94.30
52295;DHT22;38243;53.212;6.574;2022-08-25T02:26:47;23.00;94.20
52295;DHT22;38243;53.212;6.574;2022-08-25T02:29:13;23.00;94.20
52295;DHT22;38243;53.212;6.574;2022-08-25T02:31:41;23.00;94.10
52295;DHT22;38243;53.212;6.574;2022-08-25T02:34:07;22.90;94.20
52295;DHT22;38243;53.212;6.574;2022-08-25T02:36:33;22.90;94.10
52295;DHT22;38243;53.212;6.574;2022-08-25T02:38:59;22.90;93.90
52295;DHT22;38243;53.212;6.574;2022-08-25T02:41:25;22.90;93.90
52295;DHT22;38243;53.212;6.574;2022-08-25T02:43:51;22.80;93.80
52295;DHT22;38243;53.212;6.574;2022-08-25T02:46:18;22.80;93.70
52295;DHT22;38243;53.212;6.574;2022-08-25T02:48:44;22.80;93.90
52295;DHT22;38243;53.212;6.574;2022-08-25T02:51:10;22.80;93.70
52295;DHT22;38243;53.212;6.574;2022-08-25T02:53:36;22.80;93.60
52295;DHT22;38243;53.212;6.574;2022-08-25T02:56:04;22.80;93.60
52295;DHT22;38243;53.212;6.574;2022-08-25T02:58:31;22.70;93.60
52295;DHT22;38243;53.212;6.574;2022-08-25T03:00:57;22.70;93.60
52295;DHT22;38243;53.212;6.574;2022-08-25T03:03:23;22.70;93.60
52295;DHT22;38243;53.212;6.574;2022-08-25T03:05:48;22.70;93.60
52295;DHT22;38243;53.212;6.574;2022-08-25T03:08:14;22.70;93.70
52295;DHT22;38243;53.212;6.574;2022-08-25T03:10:40;22.70;93.60
52295;DHT22;38243;53.212;6.574;2022-08-25T03:13:06;22.60;93.60
52295;DHT22;38243;53.212;6.574;2022-08-25T03:15:31;22.60;93.60
52295;DHT22;38243;53.212;6.574;2022-08-25T03:17:57;22.60;93.60
52295;DHT22;38243;53.212;6.574;2022-08-25T03:20:23;22.60;93.40
52295;DHT22;38243;53.212;6.574;2022-08-25T03:22:49;22.60;93.60
52295;DHT22;38243;53.212;6.574;2022-08-25T03:25:15;22.60;93.40
52295;DHT22;38243;53.212;6.574;2022-08-25T03:28:00;22.50;93.40
52295;DHT22;38243;53.212;6.574;2022-08-25T03:30:29;22.50;93.50
52295;DHT22;38243;53.212;6.574;2022-08-25T03:32:54;22.60;93.30
52295;DHT22;38243;53.212;6.574;2022-08-25T03:35:20;22.60;93.30
52295;DHT22;38243;53.212;6.574;2022-08-25T03:37:46;22.50;93.30
52295;DHT22;38243;53.212;6.574;2022-08-25T03:40:13;22.50;93.30
52295;DHT22;38243;53.212;6.574;2022-08-25T03:42:39;22.50;93.40
52295;DHT22;38243;53.212;6.574;2022-08-25T03:45:05;22.40;93.20
52295;DHT22;38243;53.212;6.574;2022-08-25T03:47:32;22.40;93.40
52295;DHT22;38243;53.212;6.574;2022-08-25T03:49:58;22.40;93.50
52295;DHT22;38243;53.212;6.574;2022-08-25T03:52:24;22.40;93.70
52295;DHT22;38243;53.212;6.574;2022-08-25T03:54:49;22.30;93.50
52295;DHT22;38243;53.212;6.574;2022-08-25T03:57:15;22.30;93.50
52295;DHT22;38243;53.212;6.574;2022-08-25T03:59:40;22.30;93.60
52295;DHT22;38243;53.212;6.574;2022-08-25T04:02:06;22.30;93.70
52295;DHT22;38243;53.212;6.574;2022-08-25T04:04:32;22.20;93.60
52295;DHT22;38243;53.212;6.574;2022-08-25T04:06:59;22.20;93.60
52295;DHT22;38243;53.212;6.574;2022-08-25T04:09:25;22.20;93.70
52295;DHT22;38243;53.212;6.574;2022-08-25T04:11:51;22.20;93.70
52295;DHT22;38243;53.212;6.574;2022-08-25T04:14:17;22.20;93.80
52295;DHT22;38243;53.212;6.574;2022-08-25T04:16:43;22.10;93.90
52295;DHT22;38243;53.212;6.574;2022-08-25T04:19:09;22.10;93.70
52295;DHT22;38243;53.212;6.574;2022-08-25T04:21:35;22.10;93.80
52295;DHT22;38243;53.212;6.574;2022-08-25T04:24:01;22.10;93.90
52295;DHT22;38243;53.212;6.574;2022-08-25T04:26:30;22.10;93.90
52295;DHT22;38243;53.212;6.574;2022-08-25T04:28:57;22.10;93.90
52295;DHT22;38243;53.212;6.574;2022-08-25T04:31:24;22.00;93.90
52295;DHT22;38243;53.212;6.574;2022-08-25T04:33:50;22.00;93.90
52295;DHT22;38243;53.212;6.574;2022-08-25T04:36:16;22.00;94.00
52295;DHT22;38243;53.212;6.574;2022-08-25T04:38:43;21.90;94.00
52295;DHT22;38243;53.212;6.574;2022-08-25T04:41:09;22.00;94.50
52295;DHT22;38243;53.212;6.574;2022-08-25T04:43:36;22.10;94.20
52295;DHT22;38243;53.212;6.574;2022-08-25T04:46:06;22.10;93.90
52295;DHT22;38243;53.212;6.574;2022-08-25T04:48:32;22.20;93.90
52295;DHT22;38243;53.212;6.574;2022-08-25T04:51:02;22.20;93.80
52295;DHT22;38243;53.212;6.574;2022-08-25T04:53:28;22.20;93.80
52295;DHT22;38243;53.212;6.574;2022-08-25T04:55:53;22.20;93.60
52295;DHT22;38243;53.212;6.574;2022-08-25T04:58:19;22.20;93.60
52295;DHT22;38243;53.212;6.574;2022-08-25T05:00:45;22.20;93.60
52295;DHT22;38243;53.212;6.574;2022-08-25T05:03:11;22.30;93.50
52295;DHT22;38243;53.212;6.574;2022-08-25T05:05:36;22.20;93.50
52295;DHT22;38243;53.212;6.574;2022-08-25T05:08:03;22.30;93.50
52295;DHT22;38243;53.212;6.574;2022-08-25T05:10:29;22.30;93.50
52295;DHT22;38243;53.212;6.574;2022-08-25T05:12:54;22.20;93.50
52295;DHT22;38243;53.212;6.574;2022-08-25T05:15:20;22.30;93.50
52295;DHT22;38243;53.212;6.574;2022-08-25T05:18:04;22.30;93.50
52295;DHT22;38243;53.212;6.574;2022-08-25T05:20:29;22.20;93.50
52295;DHT22;38243;53.212;6.574;2022-08-25T05:22:55;22.30;93.60
52295;DHT22;38243;53.212;6.574;2022-08-25T05:25:21;22.30;93.60
52295;DHT22;38243;53.212;6.574;2022-08-25T05:27:47;22.30;93.60
52295;DHT22;38243;53.212;6.574;2022-08-25T05:30:13;22.30;93.60
52295;DHT22;38243;53.212;6.574;2022-08-25T05:32:38;22.30;93.60
52295;DHT22;38243;53.212;6.574;2022-08-25T05:35:04;22.30;93.70
52295;DHT22;38243;53.212;6.574;2022-08-25T05:37:30;22.40;93.70
52295;DHT22;38243;53.212;6.574;2022-08-25T05:39:56;22.40;93.70
52295;DHT22;38243;53.212;6.574;2022-08-25T05:42:22;22.40;93.80
52295;DHT22;38243;53.212;6.574;2022-08-25T05:44:48;22.30;93.90
52295;DHT22;38243;53.212;6.574;2022-08-25T05:47:13;22.40;93.90
52295;DHT22;38243;53.212;6.574;2022-08-25T05:49:39;22.40;93.90
52295;DHT22;38243;53.212;6.574;2022-08-25T05:52:05;22.40;93.90
52295;DHT22;38243;53.212;6.574;2022-08-25T05:54:30;22.40;94.00
52295;DHT22;38243;53.212;6.574;2022-08-25T05:56:57;22.40;94.00
52295;DHT22;38243;53.212;6.574;2022-08-25T05:59:23;22.50;94.10
52295;DHT22;38243;53.212;6.574;2022-08-25T06:01:48;22.50;94.20
52295;DHT22;38243;53.212;6.574;2022-08-25T06:04:33;22.50;94.20
52295;DHT22;38243;53.212;6.574;2022-08-25T06:06:59;22.50;94.20
52295;DHT22;38243;53.212;6.574;2022-08-25T06:09:24;22.50;94.20
52295;DHT22;38243;53.212;6.574;2022-08-25T06:11:51;22.60;94.30
52295;DHT22;38243;53.212;6.574;2022-08-25T06:14:17;22.60;94.20
52295;DHT22;38243;53.212;6.574;2022-08-25T06:16:42;22.60;94.30
52295;DHT22;38243;53.212;6.574;2022-08-25T06:19:08;22.60;94.30
52295;DHT22;38243;53.212;6.574;2022-08-25T06:21:35;22.70;94.30
52295;DHT22;38243;53.212;6.574;2022-08-25T06:24:03;22.70;94.30
52295;DHT22;38243;53.212;6.574;2022-08-25T06:26:29;22.70;94.30
52295;DHT22;38243;53.212;6.574;2022-08-25T06:28:55;22.80;94.30
52295;DHT22;38243;53.212;6.574;2022-08-25T06:31:21;22.80;94.20
52295;DHT22;38243;53.212;6.574;2022-08-25T06:33:47;22.80;94.30
52295;DHT22;38243;53.212;6.574;2022-08-25T06:36:12;22.80;94.30
52295;DHT22;38243;53.212;6.574;2022-08-25T06:38:38;22.90;94.30
52295;DHT22;38243;53.212;6.574;2022-08-25T06:41:04;22.90;94.30
52295;DHT22;38243;53.212;6.574;2022-08-25T06:43:30;22.90;94.30
52295;DHT22;38243;53.212;6.574;2022-08-25T06:45:57;23.00;94.50
52295;DHT22;38243;53.212;6.574;2022-08-25T06:48:23;23.00;94.30
52295;DHT22;38243;53.212;6.574;2022-08-25T06:50:49;23.10;94.30
52295;DHT22;38243;53.212;6.574;2022-08-25T06:53:14;23.20;94.40
52295;DHT22;38243;53.212;6.574;2022-08-25T06:55:41;23.20;94.50
52295;DHT22;38243;53.212;6.574;2022-08-25T06:58:06;23.20;94.30
52295;DHT22;38243;53.212;6.574;2022-08-25T07:00:34;23.30;94.40
52295;DHT22;38243;53.212;6.574;2022-08-25T07:02:59;23.40;94.20
52295;DHT22;38243;53.212;6.574;2022-08-25T07:05:26;23.40;94.10
52295;DHT22;38243;53.212;6.574;2022-08-25T07:07:52;23.50;94.10
52295;DHT22;38243;53.212;6.574;2022-08-25T07:10:18;23.50;94.10
52295;DHT22;38243;53.212;6.574;2022-08-25T07:12:43;23.60;94.10
52295;DHT22;38243;53.212;6.574;2022-08-25T07:15:09;23.60;94.20
52295;DHT22;38243;53.212;6.574;2022-08-25T07:17:35;23.70;94.10
52295;DHT22;38243;53.212;6.574;2022-08-25T07:20:00;23.80;94.20
52295;DHT22;38243;53.212;6.574;2022-08-25T07:22:26;23.80;93.90
52295;DHT22;38243;53.212;6.574;2022-08-25T07:24:51;23.90;93.90
52295;DHT22;38243;53.212;6.574;2022-08-25T07:27:17;23.90;93.90
52295;DHT22;38243;53.212;6.574;2022-08-25T07:29:43;24.00;93.90
52295;DHT22;38243;53.212;6.574;2022-08-25T07:32:09;24.00;93.90
52295;DHT22;38243;53.212;6.574;2022-08-25T07:34:37;24.10;93.90
52295;DHT22;38243;53.212;6.574;2022-08-25T07:37:21;24.10;93.50
52295;DHT22;38243;53.212;6.574;2022-08-25T07:39:47;24.20;93.20
52295;DHT22;38243;53.212;6.574;2022-08-25T07:42:13;24.20;93.00
52295;DHT22;38243;53.212;6.574;2022-08-25T07:44:38;24.20;92.80
52295;DHT22;38243;53.212;6.574;2022-08-25T07:47:04;24.20;92.30
52295;DHT22;38243;53.212;6.574;2022-08-25T07:49:30;24.20;93.10
52295;DHT22;38243;53.212;6.574;2022-08-25T07:51:55;24.30;93.50
52295;DHT22;38243;53.212;6.574;2022-08-25T07:54:21;24.30;93.60
52295;DHT22;38243;53.212;6.574;2022-08-25T07:56:49;24.30;93.50
52295;DHT22;38243;53.212;6.574;2022-08-25T07:59:15;24.30;93.80
52295;DHT22;38243;53.212;6.574;2022-08-25T08:01:41;24.30;93.70
52295;DHT22;38243;53.212;6.574;2022-08-25T08:04:07;24.40;93.80
52295;DHT22;38243;53.212;6.574;2022-08-25T08:06:32;24.40;93.80
52295;DHT22;38243;53.212;6.574;2022-08-25T08:08:58;24.50;93.80
52295;DHT22;38243;53.212;6.574;2022-08-25T08:11:26;24.50;93.80
52295;DHT22;38243;53.212;6.574;2022-08-25T08:13:52;24.50;93.70
52295;DHT22;38243;53.212;6.574;2022-08-25T08:16:19;24.60;93.60
52295;DHT22;38243;53.212;6.574;2022-08-25T08:18:45;24.60;93.50
52295;DHT22;38243;53.212;6.574;2022-08-25T08:21:15;24.60;93.30
52295;DHT22;38243;53.212;6.574;2022-08-25T08:23:41;24.70;93.40
52295;DHT22;38243;53.212;6.574;2022-08-25T08:26:07;24.70;93.30
52295;DHT22;38243;53.212;6.574;2022-08-25T08:28:32;24.70;93.20
52295;DHT22;38243;53.212;6.574;2022-08-25T08:30:58;24.80;93.30
52295;DHT22;38243;53.212;6.574;2022-08-25T08:33:23;24.80;93.20
52295;DHT22;38243;53.212;6.574;2022-08-25T08:35:59;24.90;93.10
52295;DHT22;38243;53.212;6.574;2022-08-25T08:38:26;24.90;93.00
52295;DHT22;38243;53.212;6.574;2022-08-25T08:40:58;24.90;92.90
52295;DHT22;38243;53.212;6.574;2022-08-25T08:43:43;25.00;92.80
52295;DHT22;38243;53.212;6.574;2022-08-25T08:46:10;25.00;92.80
52295;DHT22;38243;53.212;6.574;2022-08-25T08:53:44;25.20;92.40
52295;DHT22;38243;53.212;6.574;2022-08-25T08:56:13;25.20;92.20
52295;DHT22;38243;53.212;6.574;2022-08-25T08:58:45;25.20;92.00
52295;DHT22;38243;53.212;6.574;2022-08-25T09:01:12;25.30;91.90
52295;DHT22;38243;53.212;6.574;2022-08-25T09:03:43;25.40;91.70
52295;DHT22;38243;53.212;6.574;2022-08-25T09:08:37;25.50;91.40
52295;DHT22;38243;53.212;6.574;2022-08-25T09:22:36;25.80;90.70
52295;DHT22;38243;53.212;6.574;2022-08-25T09:24:48;25.90;90.50
52295;DHT22;38243;53.212;6.574;2022-08-25T09:32:54;26.10;89.30
52295;DHT22;38243;53.212;6.574;2022-08-25T09:35:29;26.20;88.90
52295;DHT22;38243;53.212;6.574;2022-08-25T09:40:21;26.40;88.10
52295;DHT22;38243;53.212;6.574;2022-08-25T09:42:50;26.50;87.50
52295;DHT22;38243;53.212;6.574;2022-08-25T09:45:20;26.60;87.00
52295;DHT22;38243;53.212;6.574;2022-08-25T09:47:54;26.70;86.20
52295;DHT22;38243;53.212;6.574;2022-08-25T09:50:20;26.90;85.00
52295;DHT22;38243;53.212;6.574;2022-08-25T09:52:45;27.10;84.30
52295;DHT22;38243;53.212;6.574;2022-08-25T10:00:14;27.60;80.80
52295;DHT22;38243;53.212;6.574;2022-08-25T10:02:41;27.70;79.60
52295;DHT22;38243;53.212;6.574;2022-08-25T10:05:18;28.10;78.50
52295;DHT22;38243;53.212;6.574;2022-08-25T10:07:52;28.30;77.40
52295;DHT22;38243;53.212;6.574;2022-08-25T10:10:24;28.50;76.10
52295;DHT22;38243;53.212;6.574;2022-08-25T10:12:51;28.80;74.80
52295;DHT22;38243;53.212;6.574;2022-08-25T10:15:19;29.10;73.50
52295;DHT22;38243;53.212;6.574;2022-08-25T10:17:44;29.40;71.70
52295;DHT22;38243;53.212;6.574;2022-08-25T10:20:12;29.90;70.00
52295;DHT22;38243;53.212;6.574;2022-08-25T10:22:39;30.20;68.80
52295;DHT22;38243;53.212;6.574;2022-08-25T10:25:05;30.50;67.70
52295;DHT22;38243;53.212;6.574;2022-08-25T10:34:54;29.70;68.10
52295;DHT22;38243;53.212;6.574;2022-08-25T10:39:53;28.70;70.60
52295;DHT22;38243;53.212;6.574;2022-08-25T10:52:56;27.50;74.80
52295;DHT22;38243;53.212;6.574;2022-08-25T10:55:28;27.50;75.70
52295;DHT22;38243;53.212;6.574;2022-08-25T10:57:56;27.40;75.20
52295;DHT22;38243;53.212;6.574;2022-08-25T11:00:25;27.40;75.40
52295;DHT22;38243;53.212;6.574;2022-08-25T11:08:11;27.30;76.40
52295;DHT22;38243;53.212;6.574;2022-08-25T11:10:46;27.30;75.60
52295;DHT22;38243;53.212;6.574;2022-08-25T11:13:16;27.30;75.40
52295;DHT22;38243;53.212;6.574;2022-08-25T11:15:52;27.40;75.10
52295;DHT22;38243;53.212;6.574;2022-08-25T11:18:19;27.60;74.70
52295;DHT22;38243;53.212;6.574;2022-08-25T11:20:48;27.90;73.50
52295;DHT22;38243;53.212;6.574;2022-08-25T11:23:22;28.50;71.70
52295;DHT22;38243;53.212;6.574;2022-08-25T11:25:52;29.20;69.60
52295;DHT22;38243;53.212;6.574;2022-08-25T11:31:02;30.30;66.40
52295;DHT22;38243;53.212;6.574;2022-08-25T11:33:28;30.80;65.10
52295;DHT22;38243;53.212;6.574;2022-08-25T11:35:59;31.20;63.90
52295;DHT22;38243;53.212;6.574;2022-08-25T11:43:48;31.80;61.90
52295;DHT22;38243;53.212;6.574;2022-08-25T11:51:46;32.30;60.30
52295;DHT22;38243;53.212;6.574;2022-08-25T11:54:17;32.40;59.10
52295;DHT22;38243;53.212;6.574;2022-08-25T11:56:52;32.50;59.10
52295;DHT22;38243;53.212;6.574;2022-08-25T12:02:02;32.50;58.60
52295;DHT22;38243;53.212;6.574;2022-08-25T12:04:38;32.50;58.40
52295;DHT22;38243;53.212;6.574;2022-08-25T12:17:44;32.20;58.20
52295;DHT22;38243;53.212;6.574;2022-08-25T12:20:10;32.00;57.60
52295;DHT22;38243;53.212;6.574;2022-08-25T12:25:07;32.00;57.90
52295;DHT22;38243;53.212;6.574;2022-08-25T12:27:41;31.90;57.90
52295;DHT22;38243;53.212;6.574;2022-08-25T12:30:12;32.00;57.80
52295;DHT22;38243;53.212;6.574;2022-08-25T12:37:57;32.10;57.60
52295;DHT22;38243;53.212;6.574;2022-08-25T12:43:44;31.90;57.60
52295;DHT22;38243;53.212;6.574;2022-08-25T12:45:45;31.60;58.00
52295;DHT22;38243;53.212;6.574;2022-08-25T12:50:59;30.90;60.00
52295;DHT22;38243;53.212;6.574;2022-08-25T13:01:21;29.40;63.30
52295;DHT22;38243;53.212;6.574;2022-08-25T13:04:10;29.10;64.10
52295;DHT22;38243;53.212;6.574;2022-08-25T13:14:44;28.60;65.80
52295;DHT22;38243;53.212;6.574;2022-08-25T13:17:25;28.50;66.60
52295;DHT22;38243;53.212;6.574;2022-08-25T13:20:09;28.40;66.70
52295;DHT22;38243;53.212;6.574;2022-08-25T13:22:34;28.30;66.00
52295;DHT22;38243;53.212;6.574;2022-08-25T13:25:01;28.20;66.30
52295;DHT22;38243;53.212;6.574;2022-08-25T13:27:28;28.10;67.10
52295;DHT22;38243;53.212;6.574;2022-08-25T13:29:55;28.10;67.80
52295;DHT22;38243;53.212;6.574;2022-08-25T13:32:28;27.90;68.10
52295;DHT22;38243;53.212;6.574;2022-08-25T13:35:06;27.20;67.90
52295;DHT22;38243;53.212;6.574;2022-08-25T13:37:33;27.80;68.90
52295;DHT22;38243;53.212;6.574;2022-08-25T13:42:34;27.80;67.70
52295;DHT22;38243;53.212;6.574;2022-08-25T13:45:03;27.70;68.20
52295;DHT22;38243;53.212;6.574;2022-08-25T13:47:34;27.70;68.70
52295;DHT22;38243;53.212;6.574;2022-08-25T13:50:17;27.60;69.00
52295;DHT22;38243;53.212;6.574;2022-08-25T13:52:46;27.60;69.30
52295;DHT22;38243;53.212;6.574;2022-08-25T13:55:18;27.60;68.50
52295;DHT22;38243;53.212;6.574;2022-08-25T13:57:44;27.50;69.20
52295;DHT22;38243;53.212;6.574;2022-08-25T14:00:09;27.50;69.70
52295;DHT22;38243;53.212;6.574;2022-08-25T14:05:05;27.50;69.90
52295;DHT22;38243;53.212;6.574;2022-08-25T14:07:31;27.40;69.50
52295;DHT22;38243;53.212;6.574;2022-08-25T14:09:58;27.40;69.60
52295;DHT22;38243;53.212;6.574;2022-08-25T14:12:25;27.40;69.30
52295;DHT22;38243;53.212;6.574;2022-08-25T14:15:04;27.40;69.90
52295;DHT22;38243;53.212;6.574;2022-08-25T14:17:29;27.40;70.00
52295;DHT22;38243;53.212;6.574;2022-08-25T14:19:55;27.40;69.90
52295;DHT22;38243;53.212;6.574;2022-08-25T14:22:21;27.40;69.40
52295;DHT22;38243;53.212;6.574;2022-08-25T14:24:47;27.30;70.30
52295;DHT22;38243;53.212;6.574;2022-08-25T14:27:13;27.30;69.90
52295;DHT22;38243;53.212;6.574;2022-08-25T14:29:38;27.30;70.00
52295;DHT22;38243;53.212;6.574;2022-08-25T14:32:04;27.30;70.20
52295;DHT22;38243;53.212;6.574;2022-08-25T14:34:32;27.30;70.80
52295;DHT22;38243;53.212;6.574;2022-08-25T14:37:01;27.20;70.90
52295;DHT22;38243;53.212;6.574;2022-08-25T14:39:27;27.20;70.30
52295;DHT22;38243;53.212;6.574;2022-08-25T14:41:53;27.20;70.70
52295;DHT22;38243;53.212;6.574;2022-08-25T14:44:19;27.20;70.70
52295;DHT22;38243;53.212;6.574;2022-08-25T14:46:48;27.20;71.30
52295;DHT22;38243;53.212;6.574;2022-08-25T14:49:16;27.20;71.50
52295;DHT22;38243;53.212;6.574;2022-08-25T14:51:42;27.10;71.50
52295;DHT22;38243;53.212;6.574;2022-08-25T14:54:11;27.10;71.40
52295;DHT22;38243;53.212;6.574;2022-08-25T14:56:39;27.10;70.10
52295;DHT22;38243;53.212;6.574;2022-08-25T14:59:04;27.10;71.40
52295;DHT22;38243;53.212;6.574;2022-08-25T15:01:30;27.10;71.00
52295;DHT22;38243;53.212;6.574;2022-08-25T15:03:57;27.10;71.40
52295;DHT22;38243;53.212;6.574;2022-08-25T15:06:25;27.10;71.80
52295;DHT22;38243;53.212;6.574;2022-08-25T15:08:51;27.10;71.60
52295;DHT22;38243;53.212;6.574;2022-08-25T15:11:45;27.10;71.00
52295;DHT22;38243;53.212;6.574;2022-08-25T15:14:11;27.10;70.60
52295;DHT22;38243;53.212;6.574;2022-08-25T15:16:49;27.10;70.50
52295;DHT22;38243;53.212;6.574;2022-08-25T15:19:16;27.10;70.40
52295;DHT22;38243;53.212;6.574;2022-08-25T15:21:43;27.10;70.50
52295;DHT22;38243;53.212;6.574;2022-08-25T15:24:09;27.10;71.40
52295;DHT22;38243;53.212;6.574;2022-08-25T15:26:45;27.10;71.30
52295;DHT22;38243;53.212;6.574;2022-08-25T15:29:12;27.00;71.60
52295;DHT22;38243;53.212;6.574;2022-08-25T15:31:38;27.00;70.90
52295;DHT22;38243;53.212;6.574;2022-08-25T15:34:05;27.00;70.20
52295;DHT22;38243;53.212;6.574;2022-08-25T15:36:30;27.00;71.40
52295;DHT22;38243;53.212;6.574;2022-08-25T15:38:57;27.00;71.70
52295;DHT22;38243;53.212;6.574;2022-08-25T15:41:22;27.00;70.70
52295;DHT22;38243;53.212;6.574;2022-08-25T15:43:48;27.00;71.80
52295;DHT22;38243;53.212;6.574;2022-08-25T15:46:15;27.00;71.50
52295;DHT22;38243;53.212;6.574;2022-08-25T15:48:41;26.90;72.10
52295;DHT22;38243;53.212;6.574;2022-08-25T15:51:07;26.90;72.20
52295;DHT22;38243;53.212;6.574;2022-08-25T15:53:33;26.90;72.30
52295;DHT22;38243;53.212;6.574;2022-08-25T15:55:59;26.90;71.80
52295;DHT22;38243;53.212;6.574;2022-08-25T15:58:24;26.90;72.30
52295;DHT22;38243;53.212;6.574;2022-08-25T16:00:50;26.90;72.30
52295;DHT22;38243;53.212;6.574;2022-08-25T16:03:16;26.90;72.50
52295;DHT22;38243;53.212;6.574;2022-08-25T16:05:42;26.90;72.70
52295;DHT22;38243;53.212;6.574;2022-08-25T16:08:08;26.90;72.60
52295;DHT22;38243;53.212;6.574;2022-08-25T16:10:34;26.90;72.70
52295;DHT22;38243;53.212;6.574;2022-08-25T16:13:00;26.90;72.80
52295;DHT22;38243;53.212;6.574;2022-08-25T16:15:27;26.90;72.70
52295;DHT22;38243;53.212;6.574;2022-08-25T16:17:53;26.80;72.70
52295;DHT22;38243;53.212;6.574;2022-08-25T16:20:18;26.80;73.00
52295;DHT22;38243;53.212;6.574;2022-08-25T16:22:45;26.80;72.50
52295;DHT22;38243;53.212;6.574;2022-08-25T16:25:11;26.90;72.90
52295;DHT22;38243;53.212;6.574;2022-08-25T16:27:37;26.90;73.00
52295;DHT22;38243;53.212;6.574;2022-08-25T16:30:03;26.80;72.70
52295;DHT22;38243;53.212;6.574;2022-08-25T16:32:29;26.80;72.30
52295;DHT22;38243;53.212;6.574;2022-08-25T16:34:56;26.80;72.80
52295;DHT22;38243;53.212;6.574;2022-08-25T16:37:21;26.90;72.10
52295;DHT22;38243;53.212;6.574;2022-08-25T16:39:51;26.80;72.50
52295;DHT22;38243;53.212;6.574;2022-08-25T16:42:16;26.80;72.90
52295;DHT22;38243;53.212;6.574;2022-08-25T16:44:42;26.80;72.90
52295;DHT22;38243;53.212;6.574;2022-08-25T16:47:07;26.80;73.10
52295;DHT22;38243;53.212;6.574;2022-08-25T16:49:33;26.80;73.20
52295;DHT22;38243;53.212;6.574;2022-08-25T16:51:59;26.80;72.70
52295;DHT22;38243;53.212;6.574;2022-08-25T16:54:26;26.80;73.00
52295;DHT22;38243;53.212;6.574;2022-08-25T16:57:10;26.80;72.50
52295;DHT22;38243;53.212;6.574;2022-08-25T16:59:36;26.80;72.40
52295;DHT22;38243;53.212;6.574;2022-08-25T17:02:01;26.80;72.30
52295;DHT22;38243;53.212;6.574;2022-08-25T17:04:27;26.80;72.20
52295;DHT22;38243;53.212;6.574;2022-08-25T17:06:53;26.80;72.50
52295;DHT22;38243;53.212;6.574;2022-08-25T17:09:18;26.80;72.80
52295;DHT22;38243;53.212;6.574;2022-08-25T17:11:45;26.80;72.60
52295;DHT22;38243;53.212;6.574;2022-08-25T17:14:13;26.80;72.40
52295;DHT22;38243;53.212;6.574;2022-08-25T17:16:39;26.80;72.30
52295;DHT22;38243;53.212;6.574;2022-08-25T17:19:05;26.90;72.70
52295;DHT22;38243;53.212;6.574;2022-08-25T17:21:32;26.80;72.80
52295;DHT22;38243;53.212;6.574;2022-08-25T17:23:59;26.80;72.80
52295;DHT22;38243;53.212;6.574;2022-08-25T17:26:25;26.80;72.40
52295;DHT22;38243;53.212;6.574;2022-08-25T17:28:51;26.80;72.80
52295;DHT22;38243;53.212;6.574;2022-08-25T17:31:17;26.80;72.90
52295;DHT22;38243;53.212;6.574;2022-08-25T17:33:43;26.80;73.00
52295;DHT22;38243;53.212;6.574;2022-08-25T17:36:10;26.80;72.90
52295;DHT22;38243;53.212;6.574;2022-08-25T17:38:36;26.80;73.20